Cardiff, California
Current Conditions -  °F | °C
As of 5:53 AM on Saturday 22 Nov 2014 (Local Time) from KCRQ Reporting Station
Clear Clear  
Wind Chill: 53°   Ceiling: Unl
Heat Index: 53°   Visibility: 10mi
Dew Point: 48°   Wind: 3mph
Humidity: 83%   Direction: 70°ENE
Pressure: 30.07"   Gusts: NA
Location:  33.0233°N, 117.276°W
Report Text: KCRQ 221353Z AUTO 07003KT 10SM CLR 12/09 A3007 RMK AO2 SLP181 T01170089 TSNO
Loading
Personal Weather Stations






























Interactive Weather Map New forecast layout! Learn more

10-Day Weather Forecast

Advertisements
Track Severe Weather on mobile